sensor_id;sensor_type;location;lat;lon;timestamp;P1;durP1;ratioP1;P2;durP2;ratioP2
66933;SDS011;53846;51.984;5.890;2022-07-06T00:01:35;237.43;;;225.32;;
66933;SDS011;53846;51.984;5.890;2022-07-06T00:04:04;102.07;;;96.95;;
66933;SDS011;53846;51.984;5.890;2022-07-06T00:06:34;115.63;;;109.68;;
66933;SDS011;53846;51.984;5.890;2022-07-06T00:09:03;129.90;;;123.20;;
66933;SDS011;53846;51.984;5.890;2022-07-06T00:11:34;114.73;;;108.97;;
66933;SDS011;53846;51.984;5.890;2022-07-06T00:14:03;114.47;;;108.68;;
66933;SDS011;53846;51.984;5.890;2022-07-06T00:16:35;104.10;;;98.77;;
66933;SDS011;53846;51.984;5.890;2022-07-06T00:19:06;120.90;;;114.17;;
66933;SDS011;53846;51.984;5.890;2022-07-06T00:21:35;118.03;;;112.13;;
66933;SDS011;53846;51.984;5.890;2022-07-06T00:24:04;106.95;;;101.72;;
66933;SDS011;53846;51.984;5.890;2022-07-06T00:26:33;117.07;;;111.28;;
66933;SDS011;53846;51.984;5.890;2022-07-06T00:29:03;113.30;;;107.67;;
66933;SDS011;53846;51.984;5.890;2022-07-06T00:31:34;119.97;;;114.03;;
66933;SDS011;53846;51.984;5.890;2022-07-06T00:34:03;120.37;;;114.40;;
66933;SDS011;53846;51.984;5.890;2022-07-06T00:36:32;112.13;;;106.60;;
66933;SDS011;53846;51.984;5.890;2022-07-06T00:39:02;113.67;;;108.03;;
66933;SDS011;53846;51.984;5.890;2022-07-06T00:41:31;119.37;;;113.47;;
66933;SDS011;53846;51.984;5.890;2022-07-06T00:44:05;116.03;;;110.27;;
66933;SDS011;53846;51.984;5.890;2022-07-06T00:46:38;121.00;;;115.00;;
66933;SDS011;53846;51.984;5.890;2022-07-06T00:49:08;124.43;;;118.23;;
66933;SDS011;53846;51.984;5.890;2022-07-06T00:51:57;130.73;;;124.23;;
66933;SDS011;53846;51.984;5.890;2022-07-06T00:54:28;126.97;;;120.67;;
66933;SDS011;53846;51.984;5.890;2022-07-06T00:56:59;121.13;;;115.13;;
66933;SDS011;53846;51.984;5.890;2022-07-06T00:59:28;119.93;;;113.97;;
66933;SDS011;53846;51.984;5.890;2022-07-06T01:02:00;119.00;;;113.07;;
66933;SDS011;53846;51.984;5.890;2022-07-06T01:04:30;128.00;;;121.20;;
66933;SDS011;53846;51.984;5.890;2022-07-06T01:07:00;119.90;;;113.97;;
66933;SDS011;53846;51.984;5.890;2022-07-06T01:09:29;115.70;;;109.97;;
66933;SDS011;53846;51.984;5.890;2022-07-06T01:12:02;114.00;;;108.13;;
66933;SDS011;53846;51.984;5.890;2022-07-06T01:14:32;110.00;;;104.57;;
66933;SDS011;53846;51.984;5.890;2022-07-06T01:17:04;124.17;;;117.97;;
66933;SDS011;53846;51.984;5.890;2022-07-06T01:19:35;113.33;;;107.70;;
66933;SDS011;53846;51.984;5.890;2022-07-06T01:22:06;122.67;;;116.47;;
66933;SDS011;53846;51.984;5.890;2022-07-06T01:24:37;120.07;;;114.07;;
66933;SDS011;53846;51.984;5.890;2022-07-06T01:27:07;263.20;;;249.80;;
66933;SDS011;53846;51.984;5.890;2022-07-06T01:29:36;116.07;;;110.20;;
66933;SDS011;53846;51.984;5.890;2022-07-06T01:32:06;120.33;;;114.30;;
66933;SDS011;53846;51.984;5.890;2022-07-06T01:34:35;120.40;;;114.40;;
66933;SDS011;53846;51.984;5.890;2022-07-06T01:37:07;119.23;;;113.30;;
66933;SDS011;53846;51.984;5.890;2022-07-06T01:39:36;121.67;;;115.60;;
66933;SDS011;53846;51.984;5.890;2022-07-06T01:42:05;117.60;;;111.70;;
66933;SDS011;53846;51.984;5.890;2022-07-06T01:44:34;128.63;;;122.20;;
66933;SDS011;53846;51.984;5.890;2022-07-06T01:47:03;118.20;;;112.40;;
66933;SDS011;53846;51.984;5.890;2022-07-06T01:49:34;124.47;;;118.20;;
66933;SDS011;53846;51.984;5.890;2022-07-06T01:52:03;118.00;;;112.13;;
66933;SDS011;53846;51.984;5.890;2022-07-06T01:54:35;119.57;;;113.57;;
66933;SDS011;53846;51.984;5.890;2022-07-06T01:57:07;118.53;;;112.67;;
66933;SDS011;53846;51.984;5.890;2022-07-06T01:59:37;125.00;;;118.77;;
66933;SDS011;53846;51.984;5.890;2022-07-06T02:02:06;116.27;;;110.47;;
66933;SDS011;53846;51.984;5.890;2022-07-06T02:04:36;119.50;;;113.60;;
66933;SDS011;53846;51.984;5.890;2022-07-06T02:07:09;122.67;;;116.47;;
66933;SDS011;53846;51.984;5.890;2022-07-06T02:09:38;111.40;;;105.83;;
66933;SDS011;53846;51.984;5.890;2022-07-06T02:12:07;134.03;;;127.33;;
66933;SDS011;53846;51.984;5.890;2022-07-06T02:14:36;119.07;;;113.17;;
66933;SDS011;53846;51.984;5.890;2022-07-06T02:17:05;129.93;;;123.43;;
66933;SDS011;53846;51.984;5.890;2022-07-06T02:19:34;133.60;;;126.97;;
66933;SDS011;53846;51.984;5.890;2022-07-06T02:22:04;131.93;;;125.37;;
66933;SDS011;53846;51.984;5.890;2022-07-06T02:24:35;132.43;;;125.80;;
66933;SDS011;53846;51.984;5.890;2022-07-06T02:27:04;137.80;;;129.70;;
66933;SDS011;53846;51.984;5.890;2022-07-06T02:29:33;127.60;;;121.27;;
66933;SDS011;53846;51.984;5.890;2022-07-06T02:32:03;138.97;;;131.90;;
66933;SDS011;53846;51.984;5.890;2022-07-06T02:34:32;133.87;;;127.13;;
66933;SDS011;53846;51.984;5.890;2022-07-06T02:37:02;129.23;;;122.70;;
66933;SDS011;53846;51.984;5.890;2022-07-06T02:39:35;127.07;;;120.77;;
66933;SDS011;53846;51.984;5.890;2022-07-06T02:42:04;117.97;;;112.17;;
66933;SDS011;53846;51.984;5.890;2022-07-06T02:44:34;124.87;;;118.67;;
66933;SDS011;53846;51.984;5.890;2022-07-06T02:47:05;123.87;;;117.53;;
66933;SDS011;53846;51.984;5.890;2022-07-06T02:49:35;123.93;;;117.77;;
66933;SDS011;53846;51.984;5.890;2022-07-06T02:52:04;122.03;;;115.97;;
66933;SDS011;53846;51.984;5.890;2022-07-06T02:54:36;116.77;;;110.97;;
66933;SDS011;53846;51.984;5.890;2022-07-06T02:57:05;125.23;;;118.97;;
66933;SDS011;53846;51.984;5.890;2022-07-06T02:59:35;128.60;;;122.13;;
66933;SDS011;53846;51.984;5.890;2022-07-06T03:02:04;115.57;;;109.80;;
66933;SDS011;53846;51.984;5.890;2022-07-06T03:04:33;124.50;;;118.33;;
66933;SDS011;53846;51.984;5.890;2022-07-06T03:07:03;116.70;;;110.97;;
66933;SDS011;53846;51.984;5.890;2022-07-06T03:09:32;125.20;;;119.00;;
66933;SDS011;53846;51.984;5.890;2022-07-06T03:12:04;128.97;;;122.57;;
66933;SDS011;53846;51.984;5.890;2022-07-06T03:14:35;119.10;;;113.20;;
66933;SDS011;53846;51.984;5.890;2022-07-06T03:17:04;123.63;;;117.47;;
66933;SDS011;53846;51.984;5.890;2022-07-06T03:19:33;124.90;;;118.70;;
66933;SDS011;53846;51.984;5.890;2022-07-06T03:22:03;122.40;;;116.40;;
66933;SDS011;53846;51.984;5.890;2022-07-06T03:24:32;126.07;;;119.83;;
66933;SDS011;53846;51.984;5.890;2022-07-06T03:27:04;125.40;;;119.20;;
66933;SDS011;53846;51.984;5.890;2022-07-06T03:29:33;119.57;;;113.67;;
66933;SDS011;53846;51.984;5.890;2022-07-06T03:32:03;125.20;;;119.00;;
66933;SDS011;53846;51.984;5.890;2022-07-06T03:34:33;116.67;;;110.97;;
66933;SDS011;53846;51.984;5.890;2022-07-06T03:37:06;123.80;;;117.67;;
66933;SDS011;53846;51.984;5.890;2022-07-06T03:39:37;118.67;;;112.80;;
66933;SDS011;53846;51.984;5.890;2022-07-06T03:42:10;119.17;;;113.20;;
66933;SDS011;53846;51.984;5.890;2022-07-06T03:44:40;111.37;;;105.87;;
66933;SDS011;53846;51.984;5.890;2022-07-06T03:47:09;122.57;;;116.47;;
66933;SDS011;53846;51.984;5.890;2022-07-06T03:49:38;118.13;;;112.33;;
66933;SDS011;53846;51.984;5.890;2022-07-06T03:52:08;118.80;;;112.90;;
66933;SDS011;53846;51.984;5.890;2022-07-06T03:54:44;115.50;;;109.83;;
66933;SDS011;53846;51.984;5.890;2022-07-06T03:57:21;118.80;;;112.77;;
66933;SDS011;53846;51.984;5.890;2022-07-06T03:59:51;124.90;;;118.68;;
66933;SDS011;53846;51.984;5.890;2022-07-06T04:02:22;118.53;;;112.63;;
66933;SDS011;53846;51.984;5.890;2022-07-06T04:04:52;125.80;;;119.60;;
66933;SDS011;53846;51.984;5.890;2022-07-06T04:07:21;113.90;;;108.30;;
66933;SDS011;53846;51.984;5.890;2022-07-06T04:09:51;122.80;;;116.73;;
66933;SDS011;53846;51.984;5.890;2022-07-06T04:12:23;119.70;;;113.70;;
66933;SDS011;53846;51.984;5.890;2022-07-06T04:14:52;126.83;;;120.17;;
66933;SDS011;53846;51.984;5.890;2022-07-06T04:17:24;123.90;;;117.80;;
66933;SDS011;53846;51.984;5.890;2022-07-06T04:20:06;119.97;;;114.07;;
66933;SDS011;53846;51.984;5.890;2022-07-06T04:22:37;115.43;;;109.67;;
66933;SDS011;53846;51.984;5.890;2022-07-06T04:25:06;117.37;;;111.53;;
66933;SDS011;53846;51.984;5.890;2022-07-06T04:27:39;116.90;;;111.03;;
66933;SDS011;53846;51.984;5.890;2022-07-06T04:30:10;119.23;;;113.37;;
66933;SDS011;53846;51.984;5.890;2022-07-06T04:32:41;117.17;;;111.43;;
66933;SDS011;53846;51.984;5.890;2022-07-06T04:35:11;103.63;;;98.57;;
66933;SDS011;53846;51.984;5.890;2022-07-06T04:37:42;112.00;;;106.50;;
66933;SDS011;53846;51.984;5.890;2022-07-06T04:40:12;106.10;;;100.90;;
66933;SDS011;53846;51.984;5.890;2022-07-06T04:42:44;118.00;;;112.13;;
66933;SDS011;53846;51.984;5.890;2022-07-06T04:45:13;114.93;;;109.27;;
66933;SDS011;53846;51.984;5.890;2022-07-06T04:47:43;119.43;;;113.47;;
66933;SDS011;53846;51.984;5.890;2022-07-06T04:50:13;111.10;;;105.67;;
66933;SDS011;53846;51.984;5.890;2022-07-06T04:52:43;113.13;;;107.53;;
66933;SDS011;53846;51.984;5.890;2022-07-06T04:55:12;128.47;;;122.13;;
66933;SDS011;53846;51.984;5.890;2022-07-06T04:57:45;115.17;;;109.57;;
66933;SDS011;53846;51.984;5.890;2022-07-06T05:00:17;114.70;;;109.03;;
66933;SDS011;53846;51.984;5.890;2022-07-06T05:02:48;126.47;;;120.07;;
66933;SDS011;53846;51.984;5.890;2022-07-06T05:05:23;127.87;;;121.47;;
66933;SDS011;53846;51.984;5.890;2022-07-06T05:07:56;126.03;;;119.77;;
66933;SDS011;53846;51.984;5.890;2022-07-06T05:10:25;127.30;;;120.97;;
66933;SDS011;53846;51.984;5.890;2022-07-06T05:12:59;113.50;;;107.80;;
66933;SDS011;53846;51.984;5.890;2022-07-06T05:15:28;110.00;;;104.57;;
66933;SDS011;53846;51.984;5.890;2022-07-06T05:17:57;113.03;;;107.43;;
66933;SDS011;53846;51.984;5.890;2022-07-06T05:20:26;104.33;;;99.20;;
66933;SDS011;53846;51.984;5.890;2022-07-06T05:22:56;129.50;;;123.07;;
66933;SDS011;53846;51.984;5.890;2022-07-06T05:25:29;119.97;;;113.97;;
66933;SDS011;53846;51.984;5.890;2022-07-06T05:28:01;121.73;;;115.73;;
66933;SDS011;53846;51.984;5.890;2022-07-06T05:30:31;125.67;;;119.37;;
66933;SDS011;53846;51.984;5.890;2022-07-06T05:33:00;125.30;;;119.00;;
66933;SDS011;53846;51.984;5.890;2022-07-06T05:35:29;121.97;;;116.00;;
66933;SDS011;53846;51.984;5.890;2022-07-06T05:38:01;115.47;;;109.77;;
66933;SDS011;53846;51.984;5.890;2022-07-06T05:40:30;118.77;;;112.87;;
66933;SDS011;53846;51.984;5.890;2022-07-06T05:43:02;117.90;;;112.03;;
66933;SDS011;53846;51.984;5.890;2022-07-06T05:45:31;106.77;;;101.53;;
66933;SDS011;53846;51.984;5.890;2022-07-06T05:48:01;104.77;;;99.60;;
66933;SDS011;53846;51.984;5.890;2022-07-06T05:50:43;109.63;;;103.93;;
66933;SDS011;53846;51.984;5.890;2022-07-06T05:53:12;104.60;;;99.50;;
66933;SDS011;53846;51.984;5.890;2022-07-06T05:55:43;201.52;;;191.10;;
66933;SDS011;53846;51.984;5.890;2022-07-06T05:58:15;125.73;;;119.37;;
66933;SDS011;53846;51.984;5.890;2022-07-06T06:00:45;106.73;;;101.43;;
66933;SDS011;53846;51.984;5.890;2022-07-06T06:03:18;105.67;;;100.43;;
66933;SDS011;53846;51.984;5.890;2022-07-06T06:05:48;98.50;;;93.63;;
66933;SDS011;53846;51.984;5.890;2022-07-06T06:08:19;99.97;;;95.07;;
66933;SDS011;53846;51.984;5.890;2022-07-06T06:10:50;99.23;;;94.33;;
66933;SDS011;53846;51.984;5.890;2022-07-06T06:13:24;92.03;;;87.53;;
66933;SDS011;53846;51.984;5.890;2022-07-06T06:15:54;91.07;;;86.60;;
66933;SDS011;53846;51.984;5.890;2022-07-06T06:18:23;95.40;;;90.67;;
66933;SDS011;53846;51.984;5.890;2022-07-06T06:20:52;92.67;;;88.03;;
66933;SDS011;53846;51.984;5.890;2022-07-06T06:23:21;85.20;;;81.00;;
66933;SDS011;53846;51.984;5.890;2022-07-06T06:25:50;91.20;;;86.73;;
66933;SDS011;53846;51.984;5.890;2022-07-06T06:28:20;92.70;;;88.10;;
66933;SDS011;53846;51.984;5.890;2022-07-06T06:30:51;90.20;;;85.73;;
66933;SDS011;53846;51.984;5.890;2022-07-06T06:33:20;94.35;;;89.72;;
66933;SDS011;53846;51.984;5.890;2022-07-06T06:35:50;92.33;;;87.83;;
66933;SDS011;53846;51.984;5.890;2022-07-06T06:38:21;99.35;;;93.95;;
66933;SDS011;53846;51.984;5.890;2022-07-06T06:40:51;84.72;;;80.53;;
66933;SDS011;53846;51.984;5.890;2022-07-06T06:43:21;91.60;;;87.10;;
66933;SDS011;53846;51.984;5.890;2022-07-06T06:45:59;102.03;;;97.00;;
66933;SDS011;53846;51.984;5.890;2022-07-06T06:48:31;106.55;;;101.22;;
66933;SDS011;53846;51.984;5.890;2022-07-06T06:51:00;261.00;;;246.95;;
66933;SDS011;53846;51.984;5.890;2022-07-06T06:53:29;187.85;;;178.40;;
66933;SDS011;53846;51.984;5.890;2022-07-06T06:55:58;135.68;;;128.80;;
66933;SDS011;53846;51.984;5.890;2022-07-06T06:58:27;119.18;;;113.20;;
66933;SDS011;53846;51.984;5.890;2022-07-06T07:00:59;109.80;;;104.28;;
66933;SDS011;53846;51.984;5.890;2022-07-06T07:03:28;101.90;;;96.82;;
66933;SDS011;53846;51.984;5.890;2022-07-06T07:05:57;112.85;;;107.15;;
66933;SDS011;53846;51.984;5.890;2022-07-06T07:08:26;253.75;;;239.57;;
66933;SDS011;53846;51.984;5.890;2022-07-06T07:10:55;142.80;;;135.52;;
66933;SDS011;53846;51.984;5.890;2022-07-06T07:13:24;121.93;;;115.80;;
66933;SDS011;53846;51.984;5.890;2022-07-06T07:15:53;119.70;;;113.70;;
66933;SDS011;53846;51.984;5.890;2022-07-06T07:18:25;106.40;;;101.07;;
66933;SDS011;53846;51.984;5.890;2022-07-06T07:20:54;104.85;;;99.60;;
66933;SDS011;53846;51.984;5.890;2022-07-06T07:23:23;108.05;;;102.63;;
66933;SDS011;53846;51.984;5.890;2022-07-06T07:25:53;107.43;;;102.05;;
66933;SDS011;53846;51.984;5.890;2022-07-06T07:28:22;117.03;;;111.07;;
66933;SDS011;53846;51.984;5.890;2022-07-06T07:30:51;119.57;;;113.32;;
66933;SDS011;53846;51.984;5.890;2022-07-06T07:33:20;103.10;;;97.90;;
66933;SDS011;53846;51.984;5.890;2022-07-06T07:35:51;102.40;;;97.20;;
66933;SDS011;53846;51.984;5.890;2022-07-06T07:38:20;104.90;;;99.63;;
66933;SDS011;53846;51.984;5.890;2022-07-06T07:40:49;95.07;;;90.35;;
66933;SDS011;53846;51.984;5.890;2022-07-06T07:43:18;85.57;;;81.32;;
66933;SDS011;53846;51.984;5.890;2022-07-06T07:45:48;95.00;;;90.30;;
66933;SDS011;53846;51.984;5.890;2022-07-06T07:48:17;107.13;;;101.72;;
66933;SDS011;53846;51.984;5.890;2022-07-06T07:50:46;90.75;;;86.20;;
66933;SDS011;53846;51.984;5.890;2022-07-06T07:53:18;73.18;;;69.50;;
66933;SDS011;53846;51.984;5.890;2022-07-06T07:55:47;73.63;;;69.93;;
66933;SDS011;53846;51.984;5.890;2022-07-06T07:58:16;52.45;;;49.88;;
66933;SDS011;53846;51.984;5.890;2022-07-06T08:00:45;36.55;;;34.80;;
66933;SDS011;53846;51.984;5.890;2022-07-06T08:03:15;48.03;;;45.67;;
66933;SDS011;53846;51.984;5.890;2022-07-06T08:05:44;42.03;;;40.00;;
66933;SDS011;53846;51.984;5.890;2022-07-06T08:08:13;36.80;;;35.03;;
66933;SDS011;53846;51.984;5.890;2022-07-06T08:10:45;34.28;;;32.63;;
66933;SDS011;53846;51.984;5.890;2022-07-06T08:13:14;71.27;;;67.60;;
66933;SDS011;53846;51.984;5.890;2022-07-06T08:15:43;22.30;;;21.30;;
66933;SDS011;53846;51.984;5.890;2022-07-06T08:18:12;29.48;;;28.08;;
66933;SDS011;53846;51.984;5.890;2022-07-06T08:20:41;30.92;;;29.50;;
66933;SDS011;53846;51.984;5.890;2022-07-06T08:23:10;24.80;;;23.67;;
66933;SDS011;53846;51.984;5.890;2022-07-06T08:25:40;30.25;;;28.85;;
66933;SDS011;53846;51.984;5.890;2022-07-06T08:28:11;26.27;;;25.08;;
66933;SDS011;53846;51.984;5.890;2022-07-06T08:30:40;48.17;;;45.88;;
66933;SDS011;53846;51.984;5.890;2022-07-06T08:33:09;19.70;;;18.80;;
66933;SDS011;53846;51.984;5.890;2022-07-06T08:35:38;16.00;;;15.30;;
66933;SDS011;53846;51.984;5.890;2022-07-06T08:38:07;19.17;;;17.80;;
66933;SDS011;53846;51.984;5.890;2022-07-06T08:40:37;16.52;;;15.82;;
66933;SDS011;53846;51.984;5.890;2022-07-06T08:43:11;16.75;;;16.02;;
66933;SDS011;53846;51.984;5.890;2022-07-06T08:45:40;18.08;;;17.27;;
66933;SDS011;53846;51.984;5.890;2022-07-06T08:48:10;18.40;;;17.60;;
66933;SDS011;53846;51.984;5.890;2022-07-06T08:50:40;18.90;;;18.05;;
66933;SDS011;53846;51.984;5.890;2022-07-06T08:53:09;17.90;;;17.10;;
66933;SDS011;53846;51.984;5.890;2022-07-06T08:55:38;19.95;;;18.95;;
66933;SDS011;53846;51.984;5.890;2022-07-06T08:58:07;17.92;;;17.13;;
66933;SDS011;53846;51.984;5.890;2022-07-06T09:00:39;17.88;;;17.08;;
66933;SDS011;53846;51.984;5.890;2022-07-06T09:03:10;18.88;;;17.92;;
66933;SDS011;53846;51.984;5.890;2022-07-06T09:05:43;18.23;;;17.42;;
66933;SDS011;53846;51.984;5.890;2022-07-06T09:08:14;17.80;;;17.00;;
66933;SDS011;53846;51.984;5.890;2022-07-06T09:10:43;17.60;;;16.80;;
66933;SDS011;53846;51.984;5.890;2022-07-06T09:13:12;16.88;;;16.10;;
66933;SDS011;53846;51.984;5.890;2022-07-06T09:15:47;18.50;;;17.67;;
66933;SDS011;53846;51.984;5.890;2022-07-06T09:18:16;18.35;;;17.50;;
66933;SDS011;53846;51.984;5.890;2022-07-06T09:20:45;17.35;;;16.58;;
66933;SDS011;53846;51.984;5.890;2022-07-06T09:23:15;16.55;;;15.82;;
66933;SDS011;53846;51.984;5.890;2022-07-06T09:25:47;20.23;;;17.58;;
66933;SDS011;53846;51.984;5.890;2022-07-06T09:28:17;15.65;;;14.95;;
66933;SDS011;53846;51.984;5.890;2022-07-06T09:30:51;17.90;;;17.10;;
66933;SDS011;53846;51.984;5.890;2022-07-06T09:33:23;19.65;;;18.75;;
66933;SDS011;53846;51.984;5.890;2022-07-06T09:35:55;17.27;;;16.50;;
66933;SDS011;53846;51.984;5.890;2022-07-06T09:38:26;18.13;;;17.33;;
66933;SDS011;53846;51.984;5.890;2022-07-06T09:40:56;15.30;;;14.60;;
66933;SDS011;53846;51.984;5.890;2022-07-06T09:43:28;16.02;;;15.23;;
66933;SDS011;53846;51.984;5.890;2022-07-06T09:46:01;17.45;;;16.65;;
66933;SDS011;53846;51.984;5.890;2022-07-06T09:48:30;17.73;;;16.92;;
66933;SDS011;53846;51.984;5.890;2022-07-06T09:51:03;18.23;;;17.40;;
66933;SDS011;53846;51.984;5.890;2022-07-06T09:53:34;55.03;;;52.38;;
66933;SDS011;53846;51.984;5.890;2022-07-06T09:56:04;23.30;;;22.23;;
66933;SDS011;53846;51.984;5.890;2022-07-06T09:58:34;22.08;;;21.08;;
66933;SDS011;53846;51.984;5.890;2022-07-06T10:01:09;20.23;;;19.33;;
66933;SDS011;53846;51.984;5.890;2022-07-06T10:03:38;20.50;;;19.60;;
66933;SDS011;53846;51.984;5.890;2022-07-06T10:06:09;21.65;;;20.65;;
66933;SDS011;53846;51.984;5.890;2022-07-06T10:08:38;20.80;;;19.88;;
66933;SDS011;53846;51.984;5.890;2022-07-06T10:11:10;26.08;;;24.88;;
66933;SDS011;53846;51.984;5.890;2022-07-06T10:13:40;27.17;;;25.90;;
66933;SDS011;53846;51.984;5.890;2022-07-06T10:16:13;21.50;;;20.50;;
66933;SDS011;53846;51.984;5.890;2022-07-06T10:18:43;23.15;;;22.05;;
66933;SDS011;53846;51.984;5.890;2022-07-06T10:21:12;21.70;;;20.70;;
66933;SDS011;53846;51.984;5.890;2022-07-06T10:26:17;20.35;;;19.42;;
66933;SDS011;53846;51.984;5.890;2022-07-06T10:28:47;21.83;;;20.83;;
66933;SDS011;53846;51.984;5.890;2022-07-06T10:31:19;19.40;;;18.50;;
66933;SDS011;53846;51.984;5.890;2022-07-06T10:33:49;18.75;;;17.90;;
66933;SDS011;53846;51.984;5.890;2022-07-06T10:36:19;19.70;;;18.80;;
66933;SDS011;53846;51.984;5.890;2022-07-06T10:38:49;18.70;;;17.88;;
66933;SDS011;53846;51.984;5.890;2022-07-06T10:41:29;20.00;;;19.10;;
66933;SDS011;53846;51.984;5.890;2022-07-06T10:43:57;21.55;;;20.55;;
66933;SDS011;53846;51.984;5.890;2022-07-06T10:46:29;19.33;;;18.42;;
66933;SDS011;53846;51.984;5.890;2022-07-06T10:49:12;22.08;;;21.08;;
66933;SDS011;53846;51.984;5.890;2022-07-06T10:51:44;21.08;;;20.08;;
66933;SDS011;53846;51.984;5.890;2022-07-06T10:54:13;20.45;;;19.55;;
66933;SDS011;53846;51.984;5.890;2022-07-06T10:56:44;20.27;;;19.38;;
66933;SDS011;53846;51.984;5.890;2022-07-06T10:59:16;21.85;;;20.85;;
66933;SDS011;53846;51.984;5.890;2022-07-06T11:04:43;24.15;;;23.05;;
66933;SDS011;53846;51.984;5.890;2022-07-06T11:07:14;16.15;;;15.43;;
66933;SDS011;53846;51.984;5.890;2022-07-06T11:09:46;20.00;;;19.10;;
66933;SDS011;53846;51.984;5.890;2022-07-06T11:12:23;22.85;;;21.75;;
66933;SDS011;53846;51.984;5.890;2022-07-06T11:14:52;24.45;;;23.25;;
66933;SDS011;53846;51.984;5.890;2022-07-06T11:17:24;23.17;;;21.42;;
66933;SDS011;53846;51.984;5.890;2022-07-06T11:19:56;21.23;;;20.23;;
66933;SDS011;53846;51.984;5.890;2022-07-06T11:22:26;19.63;;;18.73;;
66933;SDS011;53846;51.984;5.890;2022-07-06T11:24:58;21.55;;;20.55;;
66933;SDS011;53846;51.984;5.890;2022-07-06T11:27:27;18.35;;;17.52;;
66933;SDS011;53846;51.984;5.890;2022-07-06T11:29:58;42.38;;;40.33;;
66933;SDS011;53846;51.984;5.890;2022-07-06T11:32:29;19.73;;;18.83;;
66933;SDS011;53846;51.984;5.890;2022-07-06T11:34:58;15.95;;;15.25;;
66933;SDS011;53846;51.984;5.890;2022-07-06T11:37:27;18.02;;;17.20;;
66933;SDS011;53846;51.984;5.890;2022-07-06T11:39:56;17.83;;;17.00;;
66933;SDS011;53846;51.984;5.890;2022-07-06T11:42:34;17.00;;;16.23;;
66933;SDS011;53846;51.984;5.890;2022-07-06T11:45:05;21.55;;;20.55;;
66933;SDS011;53846;51.984;5.890;2022-07-06T11:47:37;22.02;;;21.00;;
66933;SDS011;53846;51.984;5.890;2022-07-06T11:50:07;18.38;;;17.52;;
66933;SDS011;53846;51.984;5.890;2022-07-06T11:52:37;19.33;;;18.45;;
66933;SDS011;53846;51.984;5.890;2022-07-06T11:55:06;21.40;;;20.42;;
66933;SDS011;53846;51.984;5.890;2022-07-06T11:57:35;17.00;;;16.23;;
66933;SDS011;53846;51.984;5.890;2022-07-06T12:00:07;19.52;;;18.52;;
66933;SDS011;53846;51.984;5.890;2022-07-06T12:02:41;15.65;;;14.95;;
66933;SDS011;53846;51.984;5.890;2022-07-06T12:05:29;19.88;;;18.98;;
66933;SDS011;53846;51.984;5.890;2022-07-06T12:08:03;15.35;;;14.65;;
66933;SDS011;53846;51.984;5.890;2022-07-06T12:10:36;20.80;;;18.63;;
66933;SDS011;53846;51.984;5.890;2022-07-06T12:13:05;23.55;;;22.40;;
66933;SDS011;53846;51.984;5.890;2022-07-06T12:15:34;23.40;;;22.33;;
66933;SDS011;53846;51.984;5.890;2022-07-06T12:18:05;17.30;;;16.50;;
66933;SDS011;53846;51.984;5.890;2022-07-06T12:20:35;19.70;;;18.80;;
66933;SDS011;53846;51.984;5.890;2022-07-06T12:23:04;20.48;;;19.58;;
66933;SDS011;53846;51.984;5.890;2022-07-06T12:25:35;20.67;;;19.75;;
66933;SDS011;53846;51.984;5.890;2022-07-06T12:28:05;19.67;;;18.77;;
66933;SDS011;53846;51.984;5.890;2022-07-06T12:30:34;23.25;;;22.17;;
66933;SDS011;53846;51.984;5.890;2022-07-06T12:33:16;21.65;;;20.65;;
66933;SDS011;53846;51.984;5.890;2022-07-06T12:35:45;20.45;;;19.48;;
66933;SDS011;53846;51.984;5.890;2022-07-06T12:38:20;20.65;;;19.70;;
66933;SDS011;53846;51.984;5.890;2022-07-06T12:40:50;20.98;;;20.00;;
66933;SDS011;53846;51.984;5.890;2022-07-06T12:48:58;21.08;;;20.13;;
66933;SDS011;53846;51.984;5.890;2022-07-06T12:51:28;21.17;;;20.17;;
66933;SDS011;53846;51.984;5.890;2022-07-06T12:54:12;27.35;;;26.08;;
66933;SDS011;53846;51.984;5.890;2022-07-06T12:59:27;24.38;;;23.25;;
66933;SDS011;53846;51.984;5.890;2022-07-06T13:01:57;23.60;;;22.50;;
66933;SDS011;53846;51.984;5.890;2022-07-06T13:04:29;26.38;;;25.15;;
66933;SDS011;53846;51.984;5.890;2022-07-06T13:07:00;20.52;;;19.48;;
66933;SDS011;53846;51.984;5.890;2022-07-06T13:09:30;22.13;;;21.10;;
66933;SDS011;53846;51.984;5.890;2022-07-06T13:11:59;21.15;;;20.17;;
66933;SDS011;53846;51.984;5.890;2022-07-06T13:14:28;20.50;;;19.55;;
66933;SDS011;53846;51.984;5.890;2022-07-06T13:16:57;27.02;;;25.23;;
66933;SDS011;53846;51.984;5.890;2022-07-06T13:19:29;21.30;;;20.33;;
66933;SDS011;53846;51.984;5.890;2022-07-06T13:21:58;21.13;;;20.17;;
66933;SDS011;53846;51.984;5.890;2022-07-06T13:24:27;28.90;;;27.55;;
66933;SDS011;53846;51.984;5.890;2022-07-06T13:26:56;31.40;;;29.95;;
66933;SDS011;53846;51.984;5.890;2022-07-06T13:29:25;24.13;;;23.02;;
66933;SDS011;53846;51.984;5.890;2022-07-06T13:31:54;26.88;;;25.65;;
66933;SDS011;53846;51.984;5.890;2022-07-06T13:34:23;21.35;;;20.35;;
66933;SDS011;53846;51.984;5.890;2022-07-06T13:36:55;25.05;;;23.90;;
66933;SDS011;53846;51.984;5.890;2022-07-06T13:39:24;21.98;;;20.90;;
66933;SDS011;53846;51.984;5.890;2022-07-06T13:41:53;28.25;;;26.95;;
66933;SDS011;53846;51.984;5.890;2022-07-06T13:44:23;28.98;;;27.63;;
66933;SDS011;53846;51.984;5.890;2022-07-06T13:46:52;26.30;;;25.10;;
66933;SDS011;53846;51.984;5.890;2022-07-06T13:49:21;25.05;;;23.90;;
66933;SDS011;53846;51.984;5.890;2022-07-06T13:51:50;23.25;;;22.17;;
66933;SDS011;53846;51.984;5.890;2022-07-06T13:54:23;24.10;;;23.00;;
66933;SDS011;53846;51.984;5.890;2022-07-06T13:56:52;22.33;;;21.33;;
66933;SDS011;53846;51.984;5.890;2022-07-06T13:59:21;75.53;;;71.83;;
66933;SDS011;53846;51.984;5.890;2022-07-06T14:01:50;45.95;;;43.78;;
66933;SDS011;53846;51.984;5.890;2022-07-06T14:04:19;33.40;;;31.85;;
66933;SDS011;53846;51.984;5.890;2022-07-06T14:06:48;31.52;;;30.08;;
66933;SDS011;53846;51.984;5.890;2022-07-06T14:09:17;31.45;;;30.00;;
66933;SDS011;53846;51.984;5.890;2022-07-06T14:11:49;27.75;;;26.48;;
66933;SDS011;53846;51.984;5.890;2022-07-06T14:14:18;21.85;;;20.85;;
66933;SDS011;53846;51.984;5.890;2022-07-06T14:16:47;23.63;;;22.55;;
66933;SDS011;53846;51.984;5.890;2022-07-06T14:19:16;27.38;;;26.10;;
66933;SDS011;53846;51.984;5.890;2022-07-06T14:21:46;22.63;;;21.60;;
66933;SDS011;53846;51.984;5.890;2022-07-06T14:24:15;23.17;;;22.10;;
66933;SDS011;53846;51.984;5.890;2022-07-06T14:26:44;23.67;;;22.35;;
66933;SDS011;53846;51.984;5.890;2022-07-06T14:29:16;26.23;;;25.02;;
66933;SDS011;53846;51.984;5.890;2022-07-06T14:31:45;23.40;;;22.33;;
66933;SDS011;53846;51.984;5.890;2022-07-06T14:34:14;28.73;;;27.40;;
66933;SDS011;53846;51.984;5.890;2022-07-06T14:36:43;26.63;;;25.40;;
66933;SDS011;53846;51.984;5.890;2022-07-06T14:39:13;28.23;;;26.92;;
66933;SDS011;53846;51.984;5.890;2022-07-06T14:41:42;21.60;;;20.63;;